Time;durP1;ratioP1;P1;durP2;ratioP2;P2;SDS_P1;SDS_P2;PMS_P1;PMS_P2;Temp;Humidity;BMP_temperature;BMP_pressure;BME280_temperature;BME280_humidity;BME280_pressure;Samples;Min_cycle;Max_cycle;Signal;HPM_P1;HPM_P2
2023/01/21 00:02:08;;;;;;;17.77;7.70;;;;;;;;;;4991514;28;20364;-67
2023/01/21 00:04:36;;;;;;;21.23;7.78;;;;;;;;;;4993838;28;20905;-65
2023/01/21 00:07:03;;;;;;;18.67;7.50;;;;;;;;;;5012656;28;20407;-66
2023/01/21 00:09:29;;;;;;;;;;;;;;;;;;5011486;28;20482;-67
2023/01/21 00:11:55;;;;;;;19.80;7.32;;;;;;;;;;5013300;28;19920;-67
2023/01/21 00:14:21;;;;;;;19.25;8.05;;;;;;;;;;5008933;28;20041;-66
2023/01/21 00:16:48;;;;;;;19.45;8.65;;;;;;;;;;4994773;28;20068;-66
2023/01/21 00:19:14;;;;;;;19.17;9.07;;;;;;;;;;5009681;28;20437;-66
2023/01/21 00:21:40;;;;;;;19.95;9.45;;;;;;;;;;5012243;28;20456;-66
2023/01/21 00:24:06;;;;;;;20.25;10.20;;;;;;;;;;5012572;28;20914;-66
2023/01/21 00:26:32;;;;;;;23.27;12.93;;;;;;;;;;5008321;28;20284;-66
2023/01/21 00:28:58;;;;;;;21.67;12.07;;;;;;;;;;5011091;28;20090;-67
2023/01/21 00:31:25;;;;;;;24.75;12.00;;;;;;;;;;4987186;28;20037;-66
2023/01/21 00:33:51;;;;;;;22.10;12.35;;;;;;;;;;4994064;28;20107;-66
2023/01/21 00:36:17;;;;;;;22.92;13.45;;;;;;;;;;5007286;28;20053;-66
2023/01/21 00:38:44;;;;;;;25.85;13.73;;;;;;;;;;5011422;28;20135;-66
2023/01/21 00:41:12;;;;;;;23.10;11.05;;;;;;;;;;5009855;28;20657;-66
2023/01/21 00:43:39;;;;;;;22.35;11.55;;;;;;;;;;5004966;28;20550;-66
2023/01/21 00:46:05;;;;;;;20.05;10.13;;;;;;;;;;5012971;28;20029;-65
2023/01/21 00:48:31;;;;;;;;;;;;;;;;;;5011297;28;20452;-65
2023/01/21 00:50:59;;;;;;;19.60;9.73;;;;;;;;;;5017891;28;19913;-66
2023/01/21 00:53:30;;;;;;;19.05;9.10;;;;;;;;;;5016470;28;20380;-66
2023/01/21 00:56:00;;;;;;;16.58;8.38;;;;;;;;;;5016496;28;20032;-66
2023/01/21 00:58:26;;;;;;;17.85;8.25;;;;;;;;;;5014134;28;20542;-66
2023/01/21 01:01:00;;;;;;;14.52;6.18;;;;;;;;;;5014524;28;20029;-66
2023/01/21 01:03:26;;;;;;;16.23;6.50;;;;;;;;;;5014536;28;20033;-65
2023/01/21 01:05:52;;;;;;;14.68;6.65;;;;;;;;;;5016783;28;20083;-66
2023/01/21 01:08:18;;;;;;;15.35;5.40;;;;;;;;;;5012283;28;20038;-65
2023/01/21 01:10:44;;;;;;;13.15;5.35;;;;;;;;;;5017504;28;20030;-66
2023/01/21 01:13:10;;;;;;;13.43;5.40;;;;;;;;;;5000128;28;20324;-65
2023/01/21 01:15:37;;;;;;;11.85;4.85;;;;;;;;;;5011530;28;20037;-66
2023/01/21 01:18:03;;;;;;;17.15;5.75;;;;;;;;;;5016209;28;20086;-66
2023/01/21 01:20:29;;;;;;;15.07;6.05;;;;;;;;;;5009514;28;20032;-66
2023/01/21 01:22:55;;;;;;;14.98;6.57;;;;;;;;;;5016996;28;20827;-66
2023/01/21 01:25:21;;;;;;;14.60;6.32;;;;;;;;;;4994752;28;20538;-66
2023/01/21 01:27:47;;;;;;;15.90;6.63;;;;;;;;;;5011202;28;20861;-66
2023/01/21 01:30:13;;;;;;;17.67;6.45;;;;;;;;;;5015020;28;20021;-66
2023/01/21 01:32:40;;;;;;;18.50;6.30;;;;;;;;;;5016964;28;20061;-66
2023/01/21 01:35:06;;;;;;;16.13;6.28;;;;;;;;;;5015544;28;20746;-66
2023/01/21 01:37:32;;;;;;;16.33;6.70;;;;;;;;;;5014135;28;20361;-66
2023/01/21 01:39:59;;;;;;;20.13;12.02;;;;;;;;;;5017332;28;20029;-65
2023/01/21 01:42:25;;;;;;;23.40;13.68;;;;;;;;;;4989737;28;20577;-66
2023/01/21 01:44:56;;;;;;;20.23;11.23;;;;;;;;;;5008637;28;20099;-66
2023/01/21 01:47:25;;;;;;;32.58;18.08;;;;;;;;;;5010088;28;20315;-65
2023/01/21 01:49:51;;;;;;;27.52;16.83;;;;;;;;;;4996291;28;20021;-66
2023/01/21 01:52:17;;;;;;;;;;;;;;;;;;5006646;28;20357;-65
2023/01/21 01:54:47;;;;;;;35.47;22.00;;;;;;;;;;5010915;28;20012;-65
2023/01/21 01:57:15;;;;;;;28.02;15.80;;;;;;;;;;5007748;28;20036;-65
2023/01/21 01:59:42;;;;;;;23.60;11.80;;;;;;;;;;5010096;28;20029;-66
2023/01/21 02:02:10;;;;;;;21.40;10.63;;;;;;;;;;5008428;28;20537;-66
2023/01/21 02:04:45;;;;;;;18.55;10.10;;;;;;;;;;4999001;28;20110;-66
2023/01/21 02:07:11;;;;;;;17.30;9.32;;;;;;;;;;5014821;28;20394;-66
2023/01/21 02:09:37;;;;;;;16.27;8.65;;;;;;;;;;5011567;28;20513;-66
2023/01/21 02:12:04;;;;;;;21.77;10.07;;;;;;;;;;5013644;28;20448;-66
2023/01/21 02:14:32;;;;;;;17.83;7.90;;;;;;;;;;5012602;28;20036;-66
2023/01/21 02:17:04;;;;;;;16.67;7.18;;;;;;;;;;5018656;28;20036;-66
2023/01/21 02:19:33;;;;;;;15.57;7.35;;;;;;;;;;4996940;28;20043;-66
2023/01/21 02:22:26;;;;;;;15.50;7.35;;;;;;;;;;5015016;28;20490;-65
2023/01/21 02:24:56;;;;;;;14.30;7.40;;;;;;;;;;5013444;28;20045;-66
2023/01/21 02:27:40;;;;;;;13.95;7.30;;;;;;;;;;5011638;28;20179;-66
2023/01/21 02:30:17;;;;;;;15.48;6.65;;;;;;;;;;5014124;28;20025;-67
2023/01/21 02:33:02;;;;;;;13.98;5.95;;;;;;;;;;5009398;28;20037;-67
2023/01/21 02:35:38;;;;;;;14.45;6.00;;;;;;;;;;4995879;28;20148;-66
2023/01/21 02:38:10;;;;;;;14.95;6.47;;;;;;;;;;5017266;28;20061;-66
2023/01/21 02:40:59;;;;;;;15.05;6.60;;;;;;;;;;5008804;28;20059;-66
2023/01/21 02:43:26;;;;;;;16.95;6.78;;;;;;;;;;4973822;28;20040;-66
2023/01/21 02:46:10;;;;;;;14.77;6.43;;;;;;;;;;5016272;28;20040;-66
2023/01/21 02:48:40;;;;;;;15.23;5.28;;;;;;;;;;5011079;28;20029;-66
2023/01/21 02:51:07;;;;;;;14.23;5.22;;;;;;;;;;5016160;28;20021;-66
2023/01/21 02:53:34;;;;;;;15.90;5.28;;;;;;;;;;5009895;28;20475;-66
2023/01/21 02:56:27;;;;;;;15.45;5.55;;;;;;;;;;5014171;28;20040;-66
2023/01/21 02:58:56;;;;;;;18.40;6.22;;;;;;;;;;4993531;28;20364;-66
2023/01/21 03:01:28;;;;;;;19.08;7.85;;;;;;;;;;5008735;28;20034;-66
2023/01/21 03:04:00;;;;;;;22.23;9.55;;;;;;;;;;5013808;28;20473;-66
2023/01/21 03:06:39;;;;;;;19.92;8.63;;;;;;;;;;5011517;28;20262;-67
2023/01/21 03:09:26;;;;;;;17.98;6.43;;;;;;;;;;5017335;28;20497;-67
2023/01/21 03:12:08;;;;;;;17.17;4.68;;;;;;;;;;4998571;28;20048;-67
2023/01/21 03:17:48;;;;;;;14.70;4.32;;;;;;;;;;5011117;28;20130;-67
2023/01/21 03:20:20;;;;;;;16.48;5.25;;;;;;;;;;4991231;28;20021;-66
2023/01/21 03:22:47;;;;;;;16.00;5.43;;;;;;;;;;4998022;28;20120;-67
2023/01/21 03:25:14;;;;;;;15.43;4.35;;;;;;;;;;5016094;28;20840;-67
2023/01/21 03:27:42;;;;;;;14.60;4.18;;;;;;;;;;5017964;28;20784;-67
2023/01/21 03:30:15;;;;;;;15.82;4.38;;;;;;;;;;5015514;28;20036;-67
2023/01/21 03:32:43;;;;;;;16.10;4.50;;;;;;;;;;5007625;28;20036;-67
2023/01/21 03:35:10;;;;;;;21.20;4.55;;;;;;;;;;5011025;28;20032;-65
2023/01/21 03:37:53;;;;;;;16.80;4.32;;;;;;;;;;4994953;28;20036;-65
2023/01/21 03:40:38;;;;;;;14.63;3.95;;;;;;;;;;5009293;28;20035;-67
2023/01/21 03:43:04;;;;;;;18.90;4.40;;;;;;;;;;5011980;28;20025;-66
2023/01/21 03:45:51;;;;;;;17.65;4.13;;;;;;;;;;5007623;28;20028;-66
2023/01/21 03:48:23;;;;;;;19.70;4.07;;;;;;;;;;4993081;28;20096;-65
2023/01/21 03:50:56;;;;;;;18.13;4.70;;;;;;;;;;5016390;28;20028;-65
2023/01/21 03:53:22;;;;;;;20.23;3.85;;;;;;;;;;5012010;28;20033;-65
2023/01/21 03:55:52;;;;;;;21.75;4.43;;;;;;;;;;4998471;28;20043;-65
2023/01/21 03:58:18;;;;;;;19.48;4.47;;;;;;;;;;5009476;28;20041;-65
2023/01/21 04:00:45;;;;;;;18.88;4.13;;;;;;;;;;5015130;28;20029;-65
2023/01/21 04:03:11;;;;;;;16.70;3.80;;;;;;;;;;5014666;28;20045;-65
2023/01/21 04:05:37;;;;;;;16.60;3.92;;;;;;;;;;5011749;28;20140;-65
2023/01/21 04:08:04;;;;;;;16.65;3.83;;;;;;;;;;5012594;28;20037;-65
2023/01/21 04:10:30;;;;;;;20.75;4.13;;;;;;;;;;5012170;28;20128;-65
2023/01/21 04:12:56;;;;;;;18.45;3.90;;;;;;;;;;5012938;28;20033;-65
2023/01/21 04:15:22;;;;;;;17.05;3.92;;;;;;;;;;5012985;28;20061;-65
2023/01/21 04:17:48;;;;;;;16.20;4.18;;;;;;;;;;4996615;28;20041;-65
2023/01/21 04:20:15;;;;;;;16.50;3.50;;;;;;;;;;5001583;28;20505;-65
2023/01/21 04:22:41;;;;;;;;;;;;;;;;;;4998210;28;20029;-65
2023/01/21 04:25:07;;;;;;;20.27;4.00;;;;;;;;;;5000923;28;20500;-65
2023/01/21 04:27:33;;;;;;;14.48;3.60;;;;;;;;;;5015888;28;20031;-65
2023/01/21 04:29:59;;;;;;;14.45;3.53;;;;;;;;;;5018697;28;20198;-65
2023/01/21 04:32:26;;;;;;;15.25;3.47;;;;;;;;;;5011925;28;20029;-66
2023/01/21 04:34:52;;;;;;;18.65;4.03;;;;;;;;;;5004463;28;20040;-66
2023/01/21 04:37:18;;;;;;;14.93;3.45;;;;;;;;;;4995941;28;20361;-65
2023/01/21 04:39:44;;;;;;;21.40;3.88;;;;;;;;;;5018355;28;20436;-65
2023/01/21 04:42:10;;;;;;;13.25;3.50;;;;;;;;;;5016001;28;20032;-65
2023/01/21 04:44:36;;;;;;;18.27;3.17;;;;;;;;;;5013730;28;20058;-65
2023/01/21 04:47:02;;;;;;;20.05;4.35;;;;;;;;;;4998309;28;20029;-65
2023/01/21 04:49:29;;;;;;;13.98;3.40;;;;;;;;;;5016466;28;20482;-65
2023/01/21 04:51:55;;;;;;;16.35;3.40;;;;;;;;;;5017616;28;20029;-65
2023/01/21 04:54:21;;;;;;;;;;;;;;;;;;5017794;28;20116;-65
2023/01/21 04:56:47;;;;;;;14.50;3.30;;;;;;;;;;5013474;28;20377;-66
2023/01/21 04:59:13;;;;;;;16.75;3.45;;;;;;;;;;5019309;28;20033;-65
2023/01/21 05:01:40;;;;;;;14.77;3.67;;;;;;;;;;5015564;28;20029;-66
2023/01/21 05:04:06;;;;;;;12.80;3.10;;;;;;;;;;5014778;28;20044;-65
2023/01/21 05:06:32;;;;;;;14.05;2.67;;;;;;;;;;5009809;28;20049;-66
2023/01/21 05:08:58;;;;;;;16.75;3.33;;;;;;;;;;5012425;28;20476;-66
2023/01/21 05:11:25;;;;;;;13.75;3.30;;;;;;;;;;5008963;28;20032;-65
2023/01/21 05:13:51;;;;;;;17.38;3.55;;;;;;;;;;5017524;28;20108;-65
2023/01/21 05:16:17;;;;;;;15.40;3.08;;;;;;;;;;5013253;28;20531;-65
2023/01/21 05:18:44;;;;;;;15.40;3.25;;;;;;;;;;5018400;28;20037;-65
2023/01/21 05:21:11;;;;;;;14.00;3.00;;;;;;;;;;5016250;28;20060;-65
2023/01/21 05:23:37;;;;;;;;;;;;;;;;;;5011073;28;20109;-67
2023/01/21 05:26:03;;;;;;;13.32;3.17;;;;;;;;;;5012454;28;20316;-67
2023/01/21 05:28:29;;;;;;;14.63;3.17;;;;;;;;;;5014264;28;20029;-66
2023/01/21 05:30:59;;;;;;;15.30;3.05;;;;;;;;;;5018606;28;20029;-65
2023/01/21 05:33:28;;;;;;;15.30;3.00;;;;;;;;;;5013707;28;20556;-65
2023/01/21 05:35:54;;;;;;;14.18;3.03;;;;;;;;;;5015607;28;20045;-65
2023/01/21 05:38:20;;;;;;;16.20;3.13;;;;;;;;;;4993681;28;20544;-65
2023/01/21 05:40:47;;;;;;;13.15;3.45;;;;;;;;;;5016471;28;20238;-66
2023/01/21 05:43:13;;;;;;;11.68;2.67;;;;;;;;;;4999210;28;20425;-65
2023/01/21 05:45:39;;;;;;;12.07;2.90;;;;;;;;;;5009365;28;20033;-65
2023/01/21 05:48:05;;;;;;;15.00;2.95;;;;;;;;;;5016581;28;20033;-65
2023/01/21 05:50:31;;;;;;;14.85;3.20;;;;;;;;;;5010979;28;20025;-65
2023/01/21 05:52:58;;;;;;;11.35;2.65;;;;;;;;;;5013669;28;20021;-65
2023/01/21 05:55:24;;;;;;;11.90;2.53;;;;;;;;;;5008953;28;20148;-65
2023/01/21 05:57:50;;;;;;;14.85;3.22;;;;;;;;;;5016755;28;20032;-65
2023/01/21 06:00:16;;;;;;;16.17;2.95;;;;;;;;;;5006446;28;20036;-65
2023/01/21 06:02:42;;;;;;;17.88;3.30;;;;;;;;;;5014050;28;20033;-65
2023/01/21 06:05:09;;;;;;;14.70;3.10;;;;;;;;;;5014652;28;20119;-65
2023/01/21 06:07:35;;;;;;;14.23;2.78;;;;;;;;;;5009073;28;23334;-65
2023/01/21 06:10:01;;;;;;;11.98;2.78;;;;;;;;;;5012047;28;20025;-67
2023/01/21 06:12:28;;;;;;;17.52;3.22;;;;;;;;;;4998028;28;20420;-67
2023/01/21 06:14:54;;;;;;;19.10;3.40;;;;;;;;;;5012843;28;20129;-65
2023/01/21 06:17:20;;;;;;;13.60;2.85;;;;;;;;;;5010286;28;20683;-65
2023/01/21 06:19:46;;;;;;;12.80;2.85;;;;;;;;;;5016344;28;20060;-65
2023/01/21 06:22:16;;;;;;;14.75;2.85;;;;;;;;;;5011290;28;20421;-67
2023/01/21 06:24:42;;;;;;;15.32;2.97;;;;;;;;;;5015118;28;20392;-67
2023/01/21 06:27:08;;;;;;;17.17;3.03;;;;;;;;;;5011757;28;20039;-68
2023/01/21 06:29:34;;;;;;;12.43;2.80;;;;;;;;;;5010139;28;20044;-67
2023/01/21 06:32:00;;;;;;;17.30;3.60;;;;;;;;;;5015775;28;20104;-67
2023/01/21 06:34:26;;;;;;;19.45;4.00;;;;;;;;;;4995836;28;20114;-67
2023/01/21 06:36:53;;;;;;;16.27;3.60;;;;;;;;;;5014381;28;20036;-67
2023/01/21 06:39:19;;;;;;;19.60;3.53;;;;;;;;;;4995507;28;20044;-67
2023/01/21 06:41:45;;;;;;;15.63;2.90;;;;;;;;;;5013603;28;20466;-67
2023/01/21 06:44:11;;;;;;;11.18;2.97;;;;;;;;;;5012976;28;20048;-67
2023/01/21 06:46:37;;;;;;;19.70;3.70;;;;;;;;;;5010854;28;20025;-67
2023/01/21 06:49:03;;;;;;;12.73;3.00;;;;;;;;;;5015000;28;20106;-67
2023/01/21 06:51:29;;;;;;;15.00;3.33;;;;;;;;;;4994227;28;20040;-66
2023/01/21 06:53:55;;;;;;;16.42;3.03;;;;;;;;;;5014513;28;20025;-66
2023/01/21 06:56:22;;;;;;;17.15;2.80;;;;;;;;;;5011351;28;20025;-66
2023/01/21 06:58:48;;;;;;;15.48;2.83;;;;;;;;;;5015995;28;20059;-66
2023/01/21 07:01:14;;;;;;;13.90;3.03;;;;;;;;;;5013031;28;20057;-66
2023/01/21 07:03:40;;;;;;;14.48;2.67;;;;;;;;;;5009238;28;20064;-66
2023/01/21 07:06:06;;;;;;;17.45;4.15;;;;;;;;;;5009836;28;20120;-66
2023/01/21 07:08:33;;;;;;;18.23;4.68;;;;;;;;;;5009039;28;20069;-66
2023/01/21 07:10:59;;;;;;;12.95;4.22;;;;;;;;;;5011185;28;20477;-67
2023/01/21 07:13:25;;;;;;;13.77;4.40;;;;;;;;;;5005735;28;20388;-67
2023/01/21 07:15:51;;;;;;;20.67;5.30;;;;;;;;;;5008702;28;20059;-66
2023/01/21 07:18:17;;;;;;;15.05;4.07;;;;;;;;;;4997755;28;20037;-66
2023/01/21 07:20:44;;;;;;;14.45;5.00;;;;;;;;;;5009527;28;20021;-66
2023/01/21 07:23:10;;;;;;;16.27;4.82;;;;;;;;;;5014610;28;20037;-66
2023/01/21 07:25:37;;;;;;;14.95;4.40;;;;;;;;;;5009465;28;20037;-67
2023/01/21 07:28:03;;;;;;;18.23;4.30;;;;;;;;;;5012206;28;20506;-66
2023/01/21 07:30:29;;;;;;;11.38;2.92;;;;;;;;;;5010547;28;20044;-65
2023/01/21 07:32:55;;;;;;;17.08;4.10;;;;;;;;;;5011127;28;20209;-66
2023/01/21 07:35:21;;;;;;;16.70;4.35;;;;;;;;;;5006797;28;20044;-65
2023/01/21 07:37:47;;;;;;;14.45;4.07;;;;;;;;;;5014241;28;20478;-66
2023/01/21 07:40:14;;;;;;;15.43;3.40;;;;;;;;;;4997195;28;20037;-66
2023/01/21 07:42:40;;;;;;;12.23;3.22;;;;;;;;;;4990928;28;20114;-65
2023/01/21 07:45:06;;;;;;;19.45;3.75;;;;;;;;;;5007135;28;20029;-65
2023/01/21 07:47:32;;;;;;;12.35;3.30;;;;;;;;;;5007538;28;20539;-65
2023/01/21 07:50:03;;;;;;;14.27;3.03;;;;;;;;;;5012073;28;20116;-66
2023/01/21 07:52:29;;;;;;;13.27;3.60;;;;;;;;;;5011631;28;20443;-67
2023/01/21 07:54:56;;;;;;;16.23;3.25;;;;;;;;;;5014472;28;20439;-67
2023/01/21 07:57:22;;;;;;;10.38;2.97;;;;;;;;;;5010146;28;20067;-65
2023/01/21 07:59:48;;;;;;;21.23;4.03;;;;;;;;;;4994010;28;20298;-65
2023/01/21 08:02:14;;;;;;;17.75;3.67;;;;;;;;;;4999119;28;20497;-67
2023/01/21 08:04:40;;;;;;;11.65;2.75;;;;;;;;;;5008458;28;20122;-68
2023/01/21 08:07:08;;;;;;;13.43;2.90;;;;;;;;;;5017565;28;20049;-65
2023/01/21 08:09:35;;;;;;;15.02;3.47;;;;;;;;;;5009859;28;20025;-65
2023/01/21 08:12:02;;;;;;;13.07;4.00;;;;;;;;;;5014182;28;20574;-67
2023/01/21 08:14:28;;;;;;;13.98;3.45;;;;;;;;;;5010506;28;20138;-66
2023/01/21 08:16:54;;;;;;;12.32;3.50;;;;;;;;;;5015146;28;20603;-65
2023/01/21 08:19:20;;;;;;;12.35;3.97;;;;;;;;;;5015081;28;20590;-66
2023/01/21 08:21:46;;;;;;;14.63;3.40;;;;;;;;;;5016689;28;20695;-66
2023/01/21 08:24:13;;;;;;;11.75;3.40;;;;;;;;;;5016389;28;20566;-65
2023/01/21 08:26:39;;;;;;;12.70;3.55;;;;;;;;;;5009670;28;20071;-65
2023/01/21 08:29:05;;;;;;;9.88;3.28;;;;;;;;;;4996058;28;20892;-64
2023/01/21 08:31:31;;;;;;;13.80;4.65;;;;;;;;;;5009444;28;20035;-65
2023/01/21 08:33:58;;;;;;;15.40;4.75;;;;;;;;;;5014220;28;20406;-65
2023/01/21 08:36:25;;;;;;;13.85;4.30;;;;;;;;;;5010734;28;20620;-65
2023/01/21 08:38:57;;;;;;;10.50;3.25;;;;;;;;;;4996896;28;20059;-65
2023/01/21 08:41:24;;;;;;;11.32;3.63;;;;;;;;;;4994701;28;20048;-66
2023/01/21 08:43:51;;;;;;;18.58;5.50;;;;;;;;;;5010522;28;20343;-66
2023/01/21 08:46:17;;;;;;;17.85;6.55;;;;;;;;;;4993351;28;20039;-66
2023/01/21 08:48:43;;;;;;;18.65;6.22;;;;;;;;;;5012660;28;20026;-66
2023/01/21 08:51:09;;;;;;;21.77;6.38;;;;;;;;;;5000855;28;20061;-65
2023/01/21 08:53:35;;;;;;;22.55;7.00;;;;;;;;;;5015270;28;21582;-66
2023/01/21 08:56:02;;;;;;;22.60;6.82;;;;;;;;;;5012524;28;20036;-65
2023/01/21 08:58:29;;;;;;;16.98;6.47;;;;;;;;;;4992507;28;20059;-65
2023/01/21 09:00:55;;;;;;;15.77;6.40;;;;;;;;;;4996333;28;20044;-65
2023/01/21 09:03:21;;;;;;;;;;;;;;;;;;5011599;28;20039;-66
2023/01/21 09:05:50;;;;;;;18.73;5.15;;;;;;;;;;4969743;28;1291783;-66
2023/01/21 09:08:17;;;;;;;13.32;5.40;;;;;;;;;;5011108;28;20029;-65
2023/01/21 09:11:01;;;;;;;15.35;5.53;;;;;;;;;;4999256;28;20107;-66
2023/01/21 09:13:29;;;;;;;16.88;5.15;;;;;;;;;;5010656;28;20025;-67
2023/01/21 09:15:55;;;;;;;15.15;5.05;;;;;;;;;;4999526;28;20029;-66
2023/01/21 09:18:22;;;;;;;13.45;3.85;;;;;;;;;;5014803;28;20615;-68
2023/01/21 09:20:47;;;;;;;;;;;;;;;;;;5016502;28;20021;-67
2023/01/21 09:23:23;;;;;;;14.90;4.60;;;;;;;;;;5016627;28;19919;-67
2023/01/21 09:25:50;;;;;;;15.07;4.07;;;;;;;;;;5018133;28;20033;-67
2023/01/21 09:28:17;;;;;;;10.38;2.78;;;;;;;;;;5014247;28;20021;-68
2023/01/21 09:30:43;;;;;;;10.93;2.75;;;;;;;;;;5000703;28;20754;-66
2023/01/21 09:33:09;;;;;;;11.43;2.45;;;;;;;;;;5015572;28;20628;-65
2023/01/21 09:35:35;;;;;;;10.05;2.75;;;;;;;;;;5009067;28;20043;-67
2023/01/21 09:38:01;;;;;;;9.18;2.58;;;;;;;;;;5012642;28;20570;-67
2023/01/21 09:40:27;;;;;;;12.90;3.08;;;;;;;;;;5014531;28;20289;-67
2023/01/21 09:42:53;;;;;;;23.75;3.90;;;;;;;;;;5015257;28;20036;-65
2023/01/21 09:45:20;;;;;;;10.10;3.92;;;;;;;;;;5007220;28;20086;-65
2023/01/21 09:47:48;;;;;;;10.27;2.78;;;;;;;;;;4994710;28;20032;-65
2023/01/21 09:50:17;;;;;;;8.75;2.22;;;;;;;;;;5014394;28;20119;-66
2023/01/21 09:52:49;;;;;;;7.80;1.63;;;;;;;;;;5012308;28;20261;-66
2023/01/21 09:55:15;;;;;;;9.43;2.80;;;;;;;;;;5011315;28;20068;-65
2023/01/21 09:57:53;;;;;;;9.70;2.13;;;;;;;;;;5016046;28;20462;-66
2023/01/21 10:00:29;;;;;;;13.23;4.45;;;;;;;;;;5006121;28;20067;-66
2023/01/21 10:02:59;;;;;;;13.15;4.45;;;;;;;;;;5010909;28;20031;-66
2023/01/21 10:05:28;;;;;;;13.70;5.25;;;;;;;;;;5009740;28;20056;-66
2023/01/21 10:08:00;;;;;;;12.02;4.90;;;;;;;;;;5014164;28;20399;-65
2023/01/21 10:10:47;;;;;;;14.18;4.72;;;;;;;;;;5012504;28;20029;-66
2023/01/21 10:13:21;;;;;;;16.67;3.63;;;;;;;;;;4998350;28;20029;-65
2023/01/21 10:15:53;;;;;;;17.08;6.82;;;;;;;;;;5014040;28;20708;-64
2023/01/21 10:18:24;;;;;;;12.55;5.03;;;;;;;;;;5010510;28;20033;-65
2023/01/21 10:20:53;;;;;;;11.15;2.70;;;;;;;;;;5013216;28;20026;-67
2023/01/21 10:23:33;;;;;;;13.95;3.40;;;;;;;;;;5008621;28;20033;-64
2023/01/21 10:26:02;;;;;;;11.77;2.40;;;;;;;;;;5014831;28;20516;-65
2023/01/21 10:28:32;;;;;;;9.88;2.85;;;;;;;;;;5008525;28;20037;-64
2023/01/21 10:31:01;;;;;;;9.38;2.58;;;;;;;;;;5014829;28;20098;-64
2023/01/21 10:33:27;;;;;;;11.13;2.58;;;;;;;;;;5006216;28;20029;-67
2023/01/21 10:36:03;;;;;;;8.23;1.90;;;;;;;;;;5011129;28;20536;-67
2023/01/21 10:38:38;;;;;;;10.25;3.65;;;;;;;;;;5011089;28;20040;-67
2023/01/21 10:41:14;;;;;;;13.00;3.10;;;;;;;;;;5002184;28;20028;-65
2023/01/21 10:43:43;;;;;;;10.82;2.88;;;;;;;;;;5009127;28;20068;-67
2023/01/21 10:46:22;;;;;;;7.68;2.03;;;;;;;;;;5014244;28;20158;-65
2023/01/21 10:48:54;;;;;;;7.45;1.83;;;;;;;;;;4998248;28;20039;-65
2023/01/21 10:51:26;;;;;;;8.32;1.98;;;;;;;;;;4992791;28;20410;-65
2023/01/21 10:53:53;;;;;;;5.35;1.40;;;;;;;;;;5016265;28;20600;-67
2023/01/21 10:56:37;;;;;;;8.88;1.70;;;;;;;;;;5013753;28;21850;-66
2023/01/21 10:59:08;;;;;;;6.63;1.48;;;;;;;;;;5013376;28;20036;-65
2023/01/21 11:01:36;;;;;;;7.50;1.85;;;;;;;;;;5009264;28;20694;-65
2023/01/21 11:04:12;;;;;;;8.55;1.52;;;;;;;;;;5012376;28;20033;-67
2023/01/21 11:06:38;;;;;;;6.03;1.70;;;;;;;;;;4996959;28;20384;-67
2023/01/21 11:09:05;;;;;;;6.65;1.88;;;;;;;;;;5009637;28;20086;-67
2023/01/21 11:11:36;;;;;;;6.88;1.60;;;;;;;;;;4993825;28;20502;-66
2023/01/21 11:14:02;;;;;;;9.15;1.50;;;;;;;;;;4996735;28;20084;-66
2023/01/21 11:16:46;;;;;;;8.27;1.25;;;;;;;;;;5010198;28;20102;-66
2023/01/21 11:19:16;;;;;;;5.43;1.30;;;;;;;;;;4999047;28;20091;-66
2023/01/21 11:21:59;;;;;;;5.25;1.40;;;;;;;;;;5013089;28;20032;-66
2023/01/21 11:24:26;;;;;;;6.90;1.60;;;;;;;;;;5010211;28;20033;-66
2023/01/21 11:26:56;;;;;;;7.72;1.50;;;;;;;;;;5015682;28;20025;-66
2023/01/21 11:29:23;;;;;;;7.95;1.50;;;;;;;;;;4994964;28;20033;-66
2023/01/21 11:32:02;;;;;;;8.15;1.48;;;;;;;;;;4997065;28;20506;-67
2023/01/21 11:34:29;;;;;;;5.75;1.30;;;;;;;;;;5011618;28;20043;-66
2023/01/21 11:36:57;;;;;;;7.88;1.38;;;;;;;;;;5012531;28;20546;-67
2023/01/21 11:39:24;;;;;;;9.23;2.50;;;;;;;;;;5008613;28;20039;-65
2023/01/21 11:41:51;;;;;;;5.97;1.65;;;;;;;;;;5015635;28;20138;-66
2023/01/21 11:44:18;;;;;;;5.10;1.23;;;;;;;;;;5011105;28;20033;-67
2023/01/21 11:46:45;;;;;;;4.97;1.30;;;;;;;;;;5015986;28;20022;-67
2023/01/21 11:49:11;;;;;;;4.15;1.20;;;;;;;;;;5015180;28;20418;-67
2023/01/21 11:51:38;;;;;;;4.18;1.30;;;;;;;;;;5009716;28;20574;-67
2023/01/21 11:54:08;;;;;;;6.55;1.80;;;;;;;;;;5013947;28;20129;-66
2023/01/21 11:56:35;;;;;;;5.93;1.30;;;;;;;;;;5008846;28;20025;-66
2023/01/21 11:59:01;;;;;;;2.88;0.90;;;;;;;;;;5013476;28;20029;-66
2023/01/21 12:01:27;;;;;;;5.18;1.20;;;;;;;;;;5009251;28;20034;-68
2023/01/21 12:03:56;;;;;;;9.95;1.90;;;;;;;;;;5012993;28;20465;-66
2023/01/21 12:06:29;;;;;;;8.18;2.20;;;;;;;;;;5010212;28;20391;-66
2023/01/21 12:08:57;;;;;;;5.57;1.80;;;;;;;;;;5011402;28;20033;-67
2023/01/21 12:11:24;;;;;;;4.75;1.40;;;;;;;;;;5010594;28;20040;-68
2023/01/21 12:13:59;;;;;;;7.45;2.45;;;;;;;;;;5012240;28;20037;-67
2023/01/21 12:16:42;;;;;;;8.27;2.50;;;;;;;;;;5009968;28;20041;-67
2023/01/21 12:19:27;;;;;;;10.10;3.75;;;;;;;;;;5012770;28;20637;-68
2023/01/21 12:22:20;;;;;;;9.73;2.92;;;;;;;;;;4995110;28;20148;-68
2023/01/21 12:25:06;;;;;;;8.00;3.30;;;;;;;;;;4966002;28;21042;-68
2023/01/21 12:27:42;;;;;;;8.82;2.88;;;;;;;;;;4991176;28;20025;-68
2023/01/21 12:30:26;;;;;;;9.15;2.53;;;;;;;;;;4997890;28;20124;-68
2023/01/21 12:32:58;;;;;;;9.90;3.80;;;;;;;;;;5011749;28;20053;-68
2023/01/21 12:35:38;;;;;;;7.93;2.78;;;;;;;;;;5008240;28;20425;-68
2023/01/21 12:38:12;;;;;;;6.55;1.70;;;;;;;;;;4992538;28;20333;-69
2023/01/21 12:40:52;;;;;;;4.35;1.40;;;;;;;;;;4993820;28;20037;-67
2023/01/21 12:43:22;;;;;;;8.52;2.08;;;;;;;;;;5006335;28;20025;-67
2023/01/21 12:45:51;;;;;;;5.97;1.88;;;;;;;;;;4995137;28;20020;-67
2023/01/21 12:48:24;;;;;;;7.10;2.00;;;;;;;;;;4998568;28;20057;-68
2023/01/21 12:50:56;;;;;;;7.03;2.40;;;;;;;;;;5016284;28;20037;-67
2023/01/21 12:53:22;;;;;;;6.55;2.17;;;;;;;;;;5012828;28;20025;-67
2023/01/21 12:56:06;;;;;;;6.97;2.20;;;;;;;;;;5012729;28;20451;-67
2023/01/21 12:58:36;;;;;;;6.40;2.17;;;;;;;;;;4995745;28;20291;-69
2023/01/21 13:01:16;;;;;;;6.35;2.08;;;;;;;;;;5015888;28;20420;-67
2023/01/21 13:04:03;;;;;;;7.00;2.00;;;;;;;;;;5012721;28;20029;-67
2023/01/21 13:06:29;;;;;;;;;;;;;;;;;;5010814;28;20518;-69
2023/01/21 13:08:59;;;;;;;6.25;1.88;;;;;;;;;;4995434;28;19923;-68
2023/01/21 13:11:43;;;;;;;7.10;2.15;;;;;;;;;;5011159;28;20025;-67
2023/01/21 13:14:09;;;;;;;6.95;2.10;;;;;;;;;;5014847;28;20503;-67
2023/01/21 13:16:40;;;;;;;6.68;2.22;;;;;;;;;;5012918;28;23572;-68
2023/01/21 13:19:06;;;;;;;7.45;2.40;;;;;;;;;;5000346;28;20042;-67
2023/01/21 13:21:32;;;;;;;6.43;2.30;;;;;;;;;;5010027;28;20772;-68
2023/01/21 13:24:22;;;;;;;6.20;2.17;;;;;;;;;;5014702;28;20430;-69
2023/01/21 13:26:54;;;;;;;5.93;1.73;;;;;;;;;;4996494;28;20033;-68
2023/01/21 13:29:33;;;;;;;6.45;2.00;;;;;;;;;;4996261;28;20037;-69
2023/01/21 13:32:11;;;;;;;5.72;1.90;;;;;;;;;;4998262;28;20025;-68
2023/01/21 13:34:58;;;;;;;8.30;2.30;;;;;;;;;;4992961;28;20573;-68
2023/01/21 13:37:32;;;;;;;5.97;2.00;;;;;;;;;;4998299;28;20049;-67
2023/01/21 13:40:17;;;;;;;8.48;3.03;;;;;;;;;;5011453;28;20112;-67
2023/01/21 13:42:52;;;;;;;7.00;2.20;;;;;;;;;;4995489;28;20037;-69
2023/01/21 13:45:37;;;;;;;7.93;2.37;;;;;;;;;;4997927;28;20033;-66
2023/01/21 13:48:14;;;;;;;7.97;2.58;;;;;;;;;;5013345;28;20056;-68
2023/01/21 13:50:59;;;;;;;7.88;2.75;;;;;;;;;;5010409;28;20366;-68
2023/01/21 13:53:28;;;;;;;9.82;3.25;;;;;;;;;;5009886;28;20351;-67
2023/01/21 13:56:03;;;;;;;10.80;2.80;;;;;;;;;;5013389;28;20463;-67
2023/01/21 13:58:37;;;;;;;9.10;2.95;;;;;;;;;;5011892;28;20051;-68
2023/01/21 14:01:29;;;;;;;8.18;2.42;;;;;;;;;;5013053;28;20041;-67
2023/01/21 14:03:58;;;;;;;6.05;1.98;;;;;;;;;;5009911;28;20764;-67
2023/01/21 14:06:30;;;;;;;6.85;1.83;;;;;;;;;;5009999;28;20154;-67
2023/01/21 14:09:04;;;;;;;6.90;2.30;;;;;;;;;;5011624;28;20139;-68
2023/01/21 14:11:39;;;;;;;9.60;3.22;;;;;;;;;;5008440;28;20422;-68
2023/01/21 14:14:24;;;;;;;7.82;2.60;;;;;;;;;;5013602;28;20123;-68
2023/01/21 14:17:08;;;;;;;8.05;2.80;;;;;;;;;;5013390;28;20028;-68
2023/01/21 14:19:35;;;;;;;9.82;3.30;;;;;;;;;;5010153;28;20033;-68
2023/01/21 14:22:13;;;;;;;10.18;3.90;;;;;;;;;;5011853;28;20070;-68
2023/01/21 14:25:00;;;;;;;9.52;3.42;;;;;;;;;;5011849;28;20330;-68
2023/01/21 14:27:30;;;;;;;6.35;2.38;;;;;;;;;;4970786;28;20041;-68
2023/01/21 14:30:15;;;;;;;6.35;1.95;;;;;;;;;;5013098;28;20124;-68
2023/01/21 14:32:46;;;;;;;8.38;2.38;;;;;;;;;;5009620;28;20053;-68
2023/01/21 14:35:16;;;;;;;8.85;2.83;;;;;;;;;;4995562;28;20031;-69
2023/01/21 14:38:05;;;;;;;8.35;3.60;;;;;;;;;;5006416;28;20041;-68
2023/01/21 14:40:32;;;;;;;11.10;5.28;;;;;;;;;;5002785;28;20716;-68
2023/01/21 14:42:58;;;;;;;10.10;4.90;;;;;;;;;;4994318;28;20033;-68
2023/01/21 14:45:57;;;;;;;10.23;4.80;;;;;;;;;;4989776;28;20040;-68
2023/01/21 14:48:33;;;;;;;8.93;2.90;;;;;;;;;;4896404;29;20433;-68
2023/01/21 14:51:05;;;;;;;10.48;3.55;;;;;;;;;;4894636;29;20047;-68
2023/01/21 14:53:32;;;;;;;9.80;3.20;;;;;;;;;;4895763;29;20074;-68
2023/01/21 14:56:08;;;;;;;7.95;3.22;;;;;;;;;;4884956;29;20448;-67